sensor_id;sensor_type;location;lat;lon;timestamp;P1;durP1;ratioP1;P2;durP2;ratioP2
9823;SDS011;4951;50.778;7.196;2022-11-15T00:02:20;10.03;;;8.13;;
9823;SDS011;4951;50.778;7.196;2022-11-15T00:05:05;11.00;;;9.03;;
9823;SDS011;4951;50.778;7.196;2022-11-15T00:07:52;10.60;;;9.47;;
9823;SDS011;4951;50.778;7.196;2022-11-15T00:10:39;10.17;;;8.30;;
9823;SDS011;4951;50.778;7.196;2022-11-15T00:13:25;10.03;;;8.93;;
9823;SDS011;4951;50.778;7.196;2022-11-15T00:16:11;12.53;;;9.03;;
9823;SDS011;4951;50.778;7.196;2022-11-15T00:18:57;11.97;;;8.87;;
9823;SDS011;4951;50.778;7.196;2022-11-15T00:21:42;10.50;;;9.40;;
9823;SDS011;4951;50.778;7.196;2022-11-15T00:24:28;10.43;;;9.10;;
9823;SDS011;4951;50.778;7.196;2022-11-15T00:27:15;11.03;;;9.10;;
9823;SDS011;4951;50.778;7.196;2022-11-15T00:30:01;9.33;;;7.33;;
9823;SDS011;4951;50.778;7.196;2022-11-15T00:32:48;10.27;;;9.13;;
9823;SDS011;4951;50.778;7.196;2022-11-15T00:35:34;7.30;;;6.50;;
9823;SDS011;4951;50.778;7.196;2022-11-15T00:38:19;9.63;;;8.23;;
9823;SDS011;4951;50.778;7.196;2022-11-15T00:41:05;9.63;;;8.20;;
9823;SDS011;4951;50.778;7.196;2022-11-15T00:43:54;11.07;;;9.73;;
9823;SDS011;4951;50.778;7.196;2022-11-15T00:46:40;12.93;;;10.20;;
9823;SDS011;4951;50.778;7.196;2022-11-15T00:49:25;10.03;;;8.80;;
9823;SDS011;4951;50.778;7.196;2022-11-15T00:52:11;9.90;;;8.20;;
9823;SDS011;4951;50.778;7.196;2022-11-15T00:54:57;9.93;;;8.50;;
9823;SDS011;4951;50.778;7.196;2022-11-15T00:57:43;10.17;;;9.13;;
9823;SDS011;4951;50.778;7.196;2022-11-15T01:00:30;11.17;;;9.97;;
9823;SDS011;4951;50.778;7.196;2022-11-15T01:03:15;12.40;;;10.10;;
9823;SDS011;4951;50.778;7.196;2022-11-15T01:06:01;11.60;;;9.73;;
9823;SDS011;4951;50.778;7.196;2022-11-15T01:08:49;10.37;;;9.37;;
9823;SDS011;4951;50.778;7.196;2022-11-15T01:11:35;11.37;;;8.50;;
9823;SDS011;4951;50.778;7.196;2022-11-15T01:14:20;10.50;;;9.20;;
9823;SDS011;4951;50.778;7.196;2022-11-15T01:17:08;10.00;;;8.27;;
9823;SDS011;4951;50.778;7.196;2022-11-15T01:19:54;8.90;;;6.90;;
9823;SDS011;4951;50.778;7.196;2022-11-15T01:22:40;10.30;;;8.93;;
9823;SDS011;4951;50.778;7.196;2022-11-15T01:25:26;8.33;;;7.13;;
9823;SDS011;4951;50.778;7.196;2022-11-15T01:28:12;9.37;;;8.00;;
9823;SDS011;4951;50.778;7.196;2022-11-15T01:30:58;10.60;;;8.23;;
9823;SDS011;4951;50.778;7.196;2022-11-15T01:33:46;9.23;;;7.80;;
9823;SDS011;4951;50.778;7.196;2022-11-15T01:36:33;10.73;;;7.90;;
9823;SDS011;4951;50.778;7.196;2022-11-15T01:39:18;9.57;;;8.50;;
9823;SDS011;4951;50.778;7.196;2022-11-15T01:42:04;9.83;;;8.80;;
9823;SDS011;4951;50.778;7.196;2022-11-15T01:44:50;11.70;;;8.80;;
9823;SDS011;4951;50.778;7.196;2022-11-15T01:47:39;10.33;;;8.83;;
9823;SDS011;4951;50.778;7.196;2022-11-15T01:50:30;10.23;;;8.33;;
9823;SDS011;4951;50.778;7.196;2022-11-15T01:53:17;10.57;;;8.47;;
9823;SDS011;4951;50.778;7.196;2022-11-15T01:56:06;8.97;;;7.27;;
9823;SDS011;4951;50.778;7.196;2022-11-15T01:58:55;10.73;;;9.13;;
9823;SDS011;4951;50.778;7.196;2022-11-15T02:01:43;8.87;;;7.47;;
9823;SDS011;4951;50.778;7.196;2022-11-15T02:04:30;11.13;;;8.37;;
9823;SDS011;4951;50.778;7.196;2022-11-15T02:07:19;8.60;;;6.93;;
9823;SDS011;4951;50.778;7.196;2022-11-15T02:10:08;10.17;;;8.20;;
9823;SDS011;4951;50.778;7.196;2022-11-15T02:12:56;10.03;;;8.30;;
9823;SDS011;4951;50.778;7.196;2022-11-15T02:15:47;10.03;;;8.97;;
9823;SDS011;4951;50.778;7.196;2022-11-15T02:18:44;10.07;;;8.17;;
9823;SDS011;4951;50.778;7.196;2022-11-15T02:21:36;12.17;;;8.33;;
9823;SDS011;4951;50.778;7.196;2022-11-15T02:24:37;8.40;;;6.77;;
9823;SDS011;4951;50.778;7.196;2022-11-15T02:27:47;7.63;;;6.77;;
9823;SDS011;4951;50.778;7.196;2022-11-15T02:30:58;11.53;;;8.17;;
9823;SDS011;4951;50.778;7.196;2022-11-15T02:33:51;9.50;;;7.37;;
9823;SDS011;4951;50.778;7.196;2022-11-15T02:36:43;11.40;;;8.17;;
9823;SDS011;4951;50.778;7.196;2022-11-15T02:39:39;10.83;;;9.17;;
9823;SDS011;4951;50.778;7.196;2022-11-15T02:42:31;8.43;;;7.27;;
9823;SDS011;4951;50.778;7.196;2022-11-15T02:45:39;9.43;;;7.67;;
9823;SDS011;4951;50.778;7.196;2022-11-15T02:48:31;8.30;;;7.03;;
9823;SDS011;4951;50.778;7.196;2022-11-15T02:51:18;7.27;;;6.57;;
9823;SDS011;4951;50.778;7.196;2022-11-15T02:54:04;7.67;;;6.27;;
9823;SDS011;4951;50.778;7.196;2022-11-15T02:56:50;7.50;;;6.20;;
9823;SDS011;4951;50.778;7.196;2022-11-15T03:02:50;6.10;;;5.27;;
9823;SDS011;4951;50.778;7.196;2022-11-15T03:05:53;11.63;;;6.10;;
9823;SDS011;4951;50.778;7.196;2022-11-15T03:08:48;6.33;;;5.60;;
9823;SDS011;4951;50.778;7.196;2022-11-15T03:11:43;6.13;;;5.27;;
9823;SDS011;4951;50.778;7.196;2022-11-15T03:14:32;5.80;;;5.30;;
9823;SDS011;4951;50.778;7.196;2022-11-15T03:17:22;6.70;;;6.10;;
9823;SDS011;4951;50.778;7.196;2022-11-15T03:20:13;6.97;;;5.47;;
9823;SDS011;4951;50.778;7.196;2022-11-15T03:23:03;7.00;;;6.30;;
9823;SDS011;4951;50.778;7.196;2022-11-15T03:25:51;6.63;;;5.87;;
9823;SDS011;4951;50.778;7.196;2022-11-15T03:28:38;6.73;;;6.10;;
9823;SDS011;4951;50.778;7.196;2022-11-15T03:31:31;6.80;;;6.07;;
9823;SDS011;4951;50.778;7.196;2022-11-15T03:34:34;6.73;;;6.03;;
9823;SDS011;4951;50.778;7.196;2022-11-15T03:37:24;7.20;;;6.50;;
9823;SDS011;4951;50.778;7.196;2022-11-15T03:40:17;6.87;;;6.27;;
9823;SDS011;4951;50.778;7.196;2022-11-15T03:43:09;6.77;;;6.07;;
9823;SDS011;4951;50.778;7.196;2022-11-15T03:46:04;6.77;;;6.00;;
9823;SDS011;4951;50.778;7.196;2022-11-15T03:48:56;5.90;;;5.40;;
9823;SDS011;4951;50.778;7.196;2022-11-15T03:51:51;6.70;;;5.93;;
9823;SDS011;4951;50.778;7.196;2022-11-15T03:54:37;6.67;;;6.07;;
9823;SDS011;4951;50.778;7.196;2022-11-15T03:57:34;7.23;;;6.53;;
9823;SDS011;4951;50.778;7.196;2022-11-15T04:00:21;6.23;;;5.70;;
9823;SDS011;4951;50.778;7.196;2022-11-15T04:03:06;6.60;;;5.27;;
9823;SDS011;4951;50.778;7.196;2022-11-15T04:05:53;6.20;;;5.70;;
9823;SDS011;4951;50.778;7.196;2022-11-15T04:08:39;5.73;;;5.10;;
9823;SDS011;4951;50.778;7.196;2022-11-15T04:11:25;5.60;;;5.10;;
9823;SDS011;4951;50.778;7.196;2022-11-15T04:14:12;5.10;;;4.60;;
9823;SDS011;4951;50.778;7.196;2022-11-15T04:16:58;5.50;;;5.00;;
9823;SDS011;4951;50.778;7.196;2022-11-15T04:19:46;5.07;;;4.57;;
9823;SDS011;4951;50.778;7.196;2022-11-15T04:22:51;5.47;;;4.63;;
9823;SDS011;4951;50.778;7.196;2022-11-15T04:25:56;5.43;;;5.00;;
9823;SDS011;4951;50.778;7.196;2022-11-15T04:28:45;4.93;;;4.53;;
9823;SDS011;4951;50.778;7.196;2022-11-15T04:31:46;5.63;;;5.13;;
9823;SDS011;4951;50.778;7.196;2022-11-15T04:34:31;5.10;;;4.60;;
9823;SDS011;4951;50.778;7.196;2022-11-15T04:37:18;5.23;;;4.73;;
9823;SDS011;4951;50.778;7.196;2022-11-15T04:40:04;5.37;;;4.67;;
9823;SDS011;4951;50.778;7.196;2022-11-15T04:42:51;5.73;;;4.97;;
9823;SDS011;4951;50.778;7.196;2022-11-15T04:45:37;5.70;;;5.20;;
9823;SDS011;4951;50.778;7.196;2022-11-15T04:48:24;6.13;;;4.93;;
9823;SDS011;4951;50.778;7.196;2022-11-15T04:51:10;4.83;;;4.33;;
9823;SDS011;4951;50.778;7.196;2022-11-15T04:53:55;4.60;;;4.20;;
9823;SDS011;4951;50.778;7.196;2022-11-15T04:56:41;4.83;;;4.40;;
9823;SDS011;4951;50.778;7.196;2022-11-15T04:59:27;5.03;;;4.53;;
9823;SDS011;4951;50.778;7.196;2022-11-15T05:02:13;4.83;;;4.40;;
9823;SDS011;4951;50.778;7.196;2022-11-15T05:05:02;5.03;;;4.50;;
9823;SDS011;4951;50.778;7.196;2022-11-15T05:07:47;5.00;;;4.30;;
9823;SDS011;4951;50.778;7.196;2022-11-15T05:10:33;4.73;;;4.27;;
9823;SDS011;4951;50.778;7.196;2022-11-15T05:13:18;4.27;;;3.87;;
9823;SDS011;4951;50.778;7.196;2022-11-15T05:16:04;4.93;;;4.37;;
9823;SDS011;4951;50.778;7.196;2022-11-15T05:18:51;4.47;;;4.10;;
9823;SDS011;4951;50.778;7.196;2022-11-15T05:21:38;4.27;;;3.97;;
9823;SDS011;4951;50.778;7.196;2022-11-15T05:24:23;3.90;;;3.60;;
9823;SDS011;4951;50.778;7.196;2022-11-15T05:27:09;4.50;;;4.10;;
9823;SDS011;4951;50.778;7.196;2022-11-15T05:29:55;4.00;;;3.60;;
9823;SDS011;4951;50.778;7.196;2022-11-15T05:32:41;4.80;;;3.40;;
9823;SDS011;4951;50.778;7.196;2022-11-15T05:35:29;3.97;;;3.67;;
9823;SDS011;4951;50.778;7.196;2022-11-15T05:38:20;4.07;;;3.73;;
9823;SDS011;4951;50.778;7.196;2022-11-15T05:41:06;3.70;;;3.40;;
9823;SDS011;4951;50.778;7.196;2022-11-15T05:43:52;4.50;;;4.10;;
9823;SDS011;4951;50.778;7.196;2022-11-15T05:46:38;5.37;;;4.10;;
9823;SDS011;4951;50.778;7.196;2022-11-15T05:49:26;4.40;;;4.00;;
9823;SDS011;4951;50.778;7.196;2022-11-15T05:52:15;4.20;;;3.83;;
9823;SDS011;4951;50.778;7.196;2022-11-15T05:55:11;4.23;;;3.83;;
9823;SDS011;4951;50.778;7.196;2022-11-15T05:57:58;4.23;;;3.83;;
9823;SDS011;4951;50.778;7.196;2022-11-15T06:00:48;3.73;;;3.40;;
9823;SDS011;4951;50.778;7.196;2022-11-15T06:03:34;4.93;;;4.43;;
9823;SDS011;4951;50.778;7.196;2022-11-15T06:06:20;4.30;;;3.93;;
9823;SDS011;4951;50.778;7.196;2022-11-15T06:09:06;4.20;;;3.80;;
9823;SDS011;4951;50.778;7.196;2022-11-15T06:11:53;5.33;;;4.37;;
9823;SDS011;4951;50.778;7.196;2022-11-15T06:14:39;4.50;;;4.10;;
9823;SDS011;4951;50.778;7.196;2022-11-15T06:17:25;5.03;;;4.60;;
9823;SDS011;4951;50.778;7.196;2022-11-15T06:20:11;4.50;;;4.10;;
9823;SDS011;4951;50.778;7.196;2022-11-15T06:22:57;4.60;;;4.20;;
9823;SDS011;4951;50.778;7.196;2022-11-15T06:25:43;4.90;;;4.40;;
9823;SDS011;4951;50.778;7.196;2022-11-15T06:28:30;5.67;;;3.50;;
9823;SDS011;4951;50.778;7.196;2022-11-15T06:31:17;3.97;;;3.53;;
9823;SDS011;4951;50.778;7.196;2022-11-15T06:34:03;4.53;;;4.03;;
9823;SDS011;4951;50.778;7.196;2022-11-15T06:36:50;4.63;;;3.20;;
9823;SDS011;4951;50.778;7.196;2022-11-15T06:39:36;4.13;;;3.43;;
9823;SDS011;4951;50.778;7.196;2022-11-15T06:42:21;4.23;;;3.60;;
9823;SDS011;4951;50.778;7.196;2022-11-15T06:45:09;3.17;;;2.90;;
9823;SDS011;4951;50.778;7.196;2022-11-15T06:47:55;3.90;;;3.60;;
9823;SDS011;4951;50.778;7.196;2022-11-15T06:50:40;3.50;;;3.20;;
9823;SDS011;4951;50.778;7.196;2022-11-15T06:53:26;3.60;;;3.30;;
9823;SDS011;4951;50.778;7.196;2022-11-15T06:56:15;3.67;;;3.00;;
9823;SDS011;4951;50.778;7.196;2022-11-15T06:59:01;3.47;;;3.17;;
9823;SDS011;4951;50.778;7.196;2022-11-15T07:01:49;3.33;;;3.03;;
9823;SDS011;4951;50.778;7.196;2022-11-15T07:04:35;3.47;;;3.00;;
9823;SDS011;4951;50.778;7.196;2022-11-15T07:07:20;2.90;;;2.70;;
9823;SDS011;4951;50.778;7.196;2022-11-15T07:10:07;3.20;;;2.90;;
9823;SDS011;4951;50.778;7.196;2022-11-15T07:12:54;4.57;;;3.00;;
9823;SDS011;4951;50.778;7.196;2022-11-15T07:15:40;2.93;;;2.60;;
9823;SDS011;4951;50.778;7.196;2022-11-15T07:18:27;3.20;;;2.70;;
9823;SDS011;4951;50.778;7.196;2022-11-15T07:21:13;4.33;;;2.60;;
9823;SDS011;4951;50.778;7.196;2022-11-15T07:23:59;2.63;;;2.43;;
9823;SDS011;4951;50.778;7.196;2022-11-15T07:26:47;3.30;;;2.70;;
9823;SDS011;4951;50.778;7.196;2022-11-15T07:29:32;4.27;;;2.10;;
9823;SDS011;4951;50.778;7.196;2022-11-15T07:32:18;2.97;;;2.37;;
9823;SDS011;4951;50.778;7.196;2022-11-15T07:35:06;3.13;;;2.50;;
9823;SDS011;4951;50.778;7.196;2022-11-15T07:37:55;2.93;;;2.73;;
9823;SDS011;4951;50.778;7.196;2022-11-15T07:40:41;3.43;;;3.00;;
9823;SDS011;4951;50.778;7.196;2022-11-15T07:43:27;4.00;;;3.23;;
9823;SDS011;4951;50.778;7.196;2022-11-15T07:46:13;5.47;;;3.67;;
9823;SDS011;4951;50.778;7.196;2022-11-15T07:48:59;4.57;;;3.30;;
9823;SDS011;4951;50.778;7.196;2022-11-15T07:51:48;3.63;;;2.90;;
9823;SDS011;4951;50.778;7.196;2022-11-15T07:54:33;4.23;;;2.57;;
9823;SDS011;4951;50.778;7.196;2022-11-15T07:57:20;2.67;;;2.47;;
9823;SDS011;4951;50.778;7.196;2022-11-15T08:00:08;4.93;;;2.40;;
9823;SDS011;4951;50.778;7.196;2022-11-15T08:03:00;3.67;;;2.43;;
9823;SDS011;4951;50.778;7.196;2022-11-15T08:05:51;2.57;;;2.00;;
9823;SDS011;4951;50.778;7.196;2022-11-15T08:08:38;4.60;;;2.40;;
9823;SDS011;4951;50.778;7.196;2022-11-15T08:11:24;3.10;;;2.00;;
9823;SDS011;4951;50.778;7.196;2022-11-15T08:14:10;2.50;;;1.90;;
9823;SDS011;4951;50.778;7.196;2022-11-15T08:16:55;1.70;;;1.60;;
9823;SDS011;4951;50.778;7.196;2022-11-15T08:19:41;2.10;;;1.90;;
9823;SDS011;4951;50.778;7.196;2022-11-15T08:22:27;2.63;;;1.77;;
9823;SDS011;4951;50.778;7.196;2022-11-15T08:25:15;2.07;;;1.80;;
9823;SDS011;4951;50.778;7.196;2022-11-15T08:28:02;2.63;;;1.70;;
9823;SDS011;4951;50.778;7.196;2022-11-15T08:30:49;2.40;;;1.50;;
9823;SDS011;4951;50.778;7.196;2022-11-15T08:33:35;3.27;;;1.90;;
9823;SDS011;4951;50.778;7.196;2022-11-15T08:36:21;4.00;;;1.80;;
9823;SDS011;4951;50.778;7.196;2022-11-15T08:39:09;2.80;;;1.80;;
9823;SDS011;4951;50.778;7.196;2022-11-15T08:41:56;1.77;;;1.60;;
9823;SDS011;4951;50.778;7.196;2022-11-15T08:44:42;2.77;;;1.80;;
9823;SDS011;4951;50.778;7.196;2022-11-15T08:47:28;2.57;;;1.83;;
9823;SDS011;4951;50.778;7.196;2022-11-15T08:50:14;3.00;;;1.80;;
9823;SDS011;4951;50.778;7.196;2022-11-15T08:53:04;2.43;;;1.87;;
9823;SDS011;4951;50.778;7.196;2022-11-15T08:55:52;2.20;;;1.57;;
9823;SDS011;4951;50.778;7.196;2022-11-15T08:58:40;2.63;;;1.70;;
9823;SDS011;4951;50.778;7.196;2022-11-15T09:01:26;2.63;;;1.70;;
9823;SDS011;4951;50.778;7.196;2022-11-15T09:04:11;3.20;;;1.70;;
9823;SDS011;4951;50.778;7.196;2022-11-15T09:06:57;2.90;;;1.80;;
9823;SDS011;4951;50.778;7.196;2022-11-15T09:09:44;2.77;;;1.50;;
9823;SDS011;4951;50.778;7.196;2022-11-15T09:12:30;1.60;;;1.50;;
9823;SDS011;4951;50.778;7.196;2022-11-15T09:15:16;2.07;;;1.50;;
9823;SDS011;4951;50.778;7.196;2022-11-15T09:18:03;2.20;;;1.63;;
9823;SDS011;4951;50.778;7.196;2022-11-15T09:20:49;2.50;;;1.50;;
9823;SDS011;4951;50.778;7.196;2022-11-15T09:23:34;2.87;;;1.60;;
9823;SDS011;4951;50.778;7.196;2022-11-15T09:26:20;1.77;;;1.43;;
9823;SDS011;4951;50.778;7.196;2022-11-15T09:29:06;2.43;;;1.70;;
9823;SDS011;4951;50.778;7.196;2022-11-15T09:31:54;2.97;;;1.60;;
9823;SDS011;4951;50.778;7.196;2022-11-15T09:34:39;1.53;;;1.30;;
9823;SDS011;4951;50.778;7.196;2022-11-15T09:37:25;2.57;;;1.30;;
9823;SDS011;4951;50.778;7.196;2022-11-15T09:40:11;2.23;;;1.50;;
9823;SDS011;4951;50.778;7.196;2022-11-15T09:46:17;2.77;;;1.43;;
9823;SDS011;4951;50.778;7.196;2022-11-15T09:49:11;1.47;;;1.20;;
9823;SDS011;4951;50.778;7.196;2022-11-15T09:52:06;1.90;;;1.40;;
9823;SDS011;4951;50.778;7.196;2022-11-15T09:54:35;1.40;;;1.30;;
9823;SDS011;4951;50.778;7.196;2022-11-15T09:57:04;1.43;;;1.33;;
9823;SDS011;4951;50.778;7.196;2022-11-15T09:59:40;2.77;;;1.30;;
9823;SDS011;4951;50.778;7.196;2022-11-15T10:05:13;3.47;;;1.40;;
9823;SDS011;4951;50.778;7.196;2022-11-15T10:07:45;2.27;;;1.50;;
9823;SDS011;4951;50.778;7.196;2022-11-15T10:10:20;3.73;;;1.50;;
9823;SDS011;4951;50.778;7.196;2022-11-15T10:12:53;2.10;;;1.40;;
9823;SDS011;4951;50.778;7.196;2022-11-15T10:15:21;3.43;;;1.30;;
9823;SDS011;4951;50.778;7.196;2022-11-15T10:17:55;1.93;;;1.40;;
9823;SDS011;4951;50.778;7.196;2022-11-15T10:20:44;1.87;;;1.20;;
9823;SDS011;4951;50.778;7.196;2022-11-15T10:23:15;2.50;;;1.40;;
9823;SDS011;4951;50.778;7.196;2022-11-15T10:25:43;2.43;;;1.30;;
9823;SDS011;4951;50.778;7.196;2022-11-15T10:28:12;3.10;;;1.30;;
9823;SDS011;4951;50.778;7.196;2022-11-15T10:30:42;3.63;;;1.20;;
9823;SDS011;4951;50.778;7.196;2022-11-15T10:33:17;2.23;;;1.50;;
9823;SDS011;4951;50.778;7.196;2022-11-15T10:36:17;1.63;;;1.07;;
9823;SDS011;4951;50.778;7.196;2022-11-15T10:38:51;2.63;;;1.40;;
9823;SDS011;4951;50.778;7.196;2022-11-15T10:41:28;2.17;;;1.13;;
9823;SDS011;4951;50.778;7.196;2022-11-15T10:50:00;2.33;;;1.30;;
9823;SDS011;4951;50.778;7.196;2022-11-15T10:52:31;2.17;;;1.27;;
9823;SDS011;4951;50.778;7.196;2022-11-15T10:55:02;2.30;;;1.20;;
9823;SDS011;4951;50.778;7.196;2022-11-15T10:57:33;2.77;;;1.27;;
9823;SDS011;4951;50.778;7.196;2022-11-15T11:00:06;3.67;;;1.20;;
9823;SDS011;4951;50.778;7.196;2022-11-15T11:02:56;3.30;;;1.17;;
9823;SDS011;4951;50.778;7.196;2022-11-15T11:05:25;2.70;;;1.37;;
9823;SDS011;4951;50.778;7.196;2022-11-15T11:07:57;8.70;;;1.40;;
9823;SDS011;4951;50.778;7.196;2022-11-15T11:10:27;1.83;;;1.10;;
9823;SDS011;4951;50.778;7.196;2022-11-15T11:12:55;1.63;;;1.10;;
9823;SDS011;4951;50.778;7.196;2022-11-15T11:15:22;3.10;;;1.30;;
9823;SDS011;4951;50.778;7.196;2022-11-15T11:17:57;1.67;;;1.00;;
9823;SDS011;4951;50.778;7.196;2022-11-15T11:20:33;2.97;;;1.20;;
9823;SDS011;4951;50.778;7.196;2022-11-15T11:23:14;2.87;;;1.50;;
9823;SDS011;4951;50.778;7.196;2022-11-15T11:25:51;3.80;;;1.40;;
9823;SDS011;4951;50.778;7.196;2022-11-15T11:28:37;2.47;;;0.87;;
9823;SDS011;4951;50.778;7.196;2022-11-15T11:31:15;1.60;;;1.13;;
9823;SDS011;4951;50.778;7.196;2022-11-15T11:33:55;2.20;;;1.30;;
9823;SDS011;4951;50.778;7.196;2022-11-15T11:36:31;2.87;;;1.43;;
9823;SDS011;4951;50.778;7.196;2022-11-15T11:39:12;2.27;;;1.40;;
9823;SDS011;4951;50.778;7.196;2022-11-15T11:41:53;2.63;;;1.10;;
9823;SDS011;4951;50.778;7.196;2022-11-15T11:44:42;3.77;;;1.20;;
9823;SDS011;4951;50.778;7.196;2022-11-15T11:47:19;3.00;;;1.63;;
9823;SDS011;4951;50.778;7.196;2022-11-15T11:49:49;3.13;;;1.30;;
9823;SDS011;4951;50.778;7.196;2022-11-15T11:52:20;3.63;;;1.47;;
9823;SDS011;4951;50.778;7.196;2022-11-15T11:54:57;2.40;;;1.30;;
9823;SDS011;4951;50.778;7.196;2022-11-15T11:57:33;2.03;;;1.30;;
9823;SDS011;4951;50.778;7.196;2022-11-15T12:00:12;3.27;;;1.40;;
9823;SDS011;4951;50.778;7.196;2022-11-15T12:02:44;2.00;;;1.30;;
9823;SDS011;4951;50.778;7.196;2022-11-15T12:05:18;1.30;;;1.20;;
9823;SDS011;4951;50.778;7.196;2022-11-15T12:07:53;4.50;;;1.50;;
9823;SDS011;4951;50.778;7.196;2022-11-15T12:10:28;5.37;;;1.40;;
9823;SDS011;4951;50.778;7.196;2022-11-15T12:12:58;4.57;;;1.60;;
9823;SDS011;4951;50.778;7.196;2022-11-15T12:15:31;3.20;;;1.40;;
9823;SDS011;4951;50.778;7.196;2022-11-15T12:18:03;2.07;;;1.33;;
9823;SDS011;4951;50.778;7.196;2022-11-15T12:20:32;2.03;;;1.50;;
9823;SDS011;4951;50.778;7.196;2022-11-15T12:23:05;5.40;;;1.60;;
9823;SDS011;4951;50.778;7.196;2022-11-15T12:25:40;3.27;;;1.47;;
9823;SDS011;4951;50.778;7.196;2022-11-15T12:28:13;3.43;;;1.70;;
9823;SDS011;4951;50.778;7.196;2022-11-15T12:30:45;2.57;;;1.70;;
9823;SDS011;4951;50.778;7.196;2022-11-15T12:33:30;2.07;;;1.57;;
9823;SDS011;4951;50.778;7.196;2022-11-15T12:36:01;2.53;;;1.70;;
9823;SDS011;4951;50.778;7.196;2022-11-15T12:41:24;3.50;;;1.90;;
9823;SDS011;4951;50.778;7.196;2022-11-15T12:43:52;2.30;;;2.10;;
9823;SDS011;4951;50.778;7.196;2022-11-15T12:49:43;3.63;;;2.00;;
9823;SDS011;4951;50.778;7.196;2022-11-15T12:52:12;3.30;;;2.20;;
9823;SDS011;4951;50.778;7.196;2022-11-15T12:54:58;4.07;;;1.90;;
9823;SDS011;4951;50.778;7.196;2022-11-15T12:57:33;4.50;;;2.17;;
9823;SDS011;4951;50.778;7.196;2022-11-15T13:03:27;3.40;;;2.07;;
9823;SDS011;4951;50.778;7.196;2022-11-15T13:05:59;1.90;;;1.80;;
9823;SDS011;4951;50.778;7.196;2022-11-15T13:08:44;3.60;;;1.97;;
9823;SDS011;4951;50.778;7.196;2022-11-15T13:17:23;3.37;;;2.00;;
9823;SDS011;4951;50.778;7.196;2022-11-15T13:22:53;4.33;;;1.80;;
9823;SDS011;4951;50.778;7.196;2022-11-15T13:28:23;2.03;;;1.90;;
9823;SDS011;4951;50.778;7.196;2022-11-15T13:30:58;2.20;;;2.00;;
9823;SDS011;4951;50.778;7.196;2022-11-15T13:33:31;2.77;;;1.90;;
9823;SDS011;4951;50.778;7.196;2022-11-15T13:36:00;2.83;;;2.00;;
9823;SDS011;4951;50.778;7.196;2022-11-15T13:38:30;4.47;;;2.10;;
9823;SDS011;4951;50.778;7.196;2022-11-15T13:40:59;3.63;;;1.80;;
9823;SDS011;4951;50.778;7.196;2022-11-15T13:43:37;3.03;;;1.80;;
9823;SDS011;4951;50.778;7.196;2022-11-15T13:46:10;2.30;;;1.93;;
9823;SDS011;4951;50.778;7.196;2022-11-15T13:48:39;4.03;;;2.00;;
9823;SDS011;4951;50.778;7.196;2022-11-15T13:51:14;3.67;;;2.27;;
9823;SDS011;4951;50.778;7.196;2022-11-15T13:53:46;3.57;;;1.80;;
9823;SDS011;4951;50.778;7.196;2022-11-15T13:56:16;2.67;;;1.93;;
9823;SDS011;4951;50.778;7.196;2022-11-15T13:58:46;2.07;;;1.60;;
9823;SDS011;4951;50.778;7.196;2022-11-15T14:01:15;2.00;;;1.80;;
9823;SDS011;4951;50.778;7.196;2022-11-15T14:03:49;3.23;;;1.90;;
9823;SDS011;4951;50.778;7.196;2022-11-15T14:06:20;4.53;;;2.27;;
9823;SDS011;4951;50.778;7.196;2022-11-15T14:08:58;3.13;;;1.77;;
9823;SDS011;4951;50.778;7.196;2022-11-15T14:11:50;2.33;;;1.87;;
9823;SDS011;4951;50.778;7.196;2022-11-15T14:14:19;2.93;;;1.60;;
9823;SDS011;4951;50.778;7.196;2022-11-15T14:16:49;2.43;;;1.67;;
9823;SDS011;4951;50.778;7.196;2022-11-15T14:19:35;2.87;;;1.87;;
9823;SDS011;4951;50.778;7.196;2022-11-15T14:22:10;1.93;;;1.70;;
9823;SDS011;4951;50.778;7.196;2022-11-15T14:24:46;2.33;;;1.93;;
9823;SDS011;4951;50.778;7.196;2022-11-15T14:27:32;3.27;;;1.80;;
9823;SDS011;4951;50.778;7.196;2022-11-15T14:30:01;5.97;;;1.70;;
9823;SDS011;4951;50.778;7.196;2022-11-15T14:32:43;2.90;;;1.30;;
9823;SDS011;4951;50.778;7.196;2022-11-15T14:35:13;1.93;;;1.60;;
9823;SDS011;4951;50.778;7.196;2022-11-15T14:37:41;2.30;;;2.00;;
9823;SDS011;4951;50.778;7.196;2022-11-15T14:40:11;3.03;;;1.73;;
9823;SDS011;4951;50.778;7.196;2022-11-15T14:42:41;2.10;;;1.57;;
9823;SDS011;4951;50.778;7.196;2022-11-15T14:45:10;2.57;;;1.60;;
9823;SDS011;4951;50.778;7.196;2022-11-15T14:47:41;2.83;;;1.70;;
9823;SDS011;4951;50.778;7.196;2022-11-15T14:50:11;2.13;;;1.60;;
9823;SDS011;4951;50.778;7.196;2022-11-15T14:52:39;3.03;;;1.83;;
9823;SDS011;4951;50.778;7.196;2022-11-15T14:55:12;1.87;;;1.67;;
9823;SDS011;4951;50.778;7.196;2022-11-15T14:57:44;2.40;;;1.40;;
9823;SDS011;4951;50.778;7.196;2022-11-15T15:00:12;2.33;;;1.50;;
9823;SDS011;4951;50.778;7.196;2022-11-15T15:02:42;2.23;;;1.80;;
9823;SDS011;4951;50.778;7.196;2022-11-15T15:05:14;2.67;;;1.93;;
9823;SDS011;4951;50.778;7.196;2022-11-15T15:07:42;2.93;;;1.83;;
9823;SDS011;4951;50.778;7.196;2022-11-15T15:10:09;4.17;;;2.07;;
9823;SDS011;4951;50.778;7.196;2022-11-15T15:12:37;2.53;;;1.77;;
9823;SDS011;4951;50.778;7.196;2022-11-15T15:15:05;3.23;;;2.00;;
9823;SDS011;4951;50.778;7.196;2022-11-15T15:17:37;2.47;;;1.83;;
9823;SDS011;4951;50.778;7.196;2022-11-15T15:20:06;3.63;;;1.80;;
9823;SDS011;4951;50.778;7.196;2022-11-15T15:22:34;2.83;;;1.90;;
9823;SDS011;4951;50.778;7.196;2022-11-15T15:25:01;2.13;;;1.93;;
9823;SDS011;4951;50.778;7.196;2022-11-15T15:27:29;3.07;;;1.80;;
9823;SDS011;4951;50.778;7.196;2022-11-15T15:29:56;6.23;;;1.90;;
9823;SDS011;4951;50.778;7.196;2022-11-15T15:32:24;3.30;;;1.70;;
9823;SDS011;4951;50.778;7.196;2022-11-15T15:34:51;2.27;;;1.53;;
9823;SDS011;4951;50.778;7.196;2022-11-15T15:37:23;2.37;;;1.70;;
9823;SDS011;4951;50.778;7.196;2022-11-15T15:39:51;2.70;;;1.73;;
9823;SDS011;4951;50.778;7.196;2022-11-15T15:42:19;2.17;;;1.97;;
9823;SDS011;4951;50.778;7.196;2022-11-15T15:44:46;1.97;;;1.77;;
9823;SDS011;4951;50.778;7.196;2022-11-15T15:47:15;2.77;;;1.83;;
9823;SDS011;4951;50.778;7.196;2022-11-15T15:49:45;2.40;;;2.20;;
9823;SDS011;4951;50.778;7.196;2022-11-15T15:52:12;2.83;;;1.73;;
9823;SDS011;4951;50.778;7.196;2022-11-15T15:54:41;4.40;;;1.90;;
9823;SDS011;4951;50.778;7.196;2022-11-15T15:57:08;4.00;;;1.83;;
9823;SDS011;4951;50.778;7.196;2022-11-15T15:59:38;2.90;;;1.83;;
9823;SDS011;4951;50.778;7.196;2022-11-15T16:02:05;1.83;;;1.70;;
9823;SDS011;4951;50.778;7.196;2022-11-15T16:04:32;2.37;;;1.97;;
9823;SDS011;4951;50.778;7.196;2022-11-15T16:07:00;2.10;;;1.90;;
9823;SDS011;4951;50.778;7.196;2022-11-15T16:09:28;3.27;;;1.77;;
9823;SDS011;4951;50.778;7.196;2022-11-15T16:12:14;1.93;;;1.60;;
9823;SDS011;4951;50.778;7.196;2022-11-15T16:14:42;3.67;;;1.80;;
9823;SDS011;4951;50.778;7.196;2022-11-15T16:17:09;2.20;;;1.97;;
9823;SDS011;4951;50.778;7.196;2022-11-15T16:19:43;2.03;;;1.80;;
9823;SDS011;4951;50.778;7.196;2022-11-15T16:22:10;1.80;;;1.70;;
9823;SDS011;4951;50.778;7.196;2022-11-15T16:24:37;2.37;;;1.80;;
9823;SDS011;4951;50.778;7.196;2022-11-15T16:27:04;2.80;;;2.00;;
9823;SDS011;4951;50.778;7.196;2022-11-15T16:29:33;3.13;;;2.50;;
9823;SDS011;4951;50.778;7.196;2022-11-15T16:32:00;4.07;;;2.20;;
9823;SDS011;4951;50.778;7.196;2022-11-15T16:34:27;2.80;;;2.33;;
9823;SDS011;4951;50.778;7.196;2022-11-15T16:36:54;2.43;;;2.00;;
9823;SDS011;4951;50.778;7.196;2022-11-15T16:39:21;1.90;;;1.80;;
9823;SDS011;4951;50.778;7.196;2022-11-15T16:41:48;3.13;;;2.23;;
9823;SDS011;4951;50.778;7.196;2022-11-15T16:44:17;2.00;;;1.90;;
9823;SDS011;4951;50.778;7.196;2022-11-15T16:46:45;2.20;;;1.90;;
9823;SDS011;4951;50.778;7.196;2022-11-15T16:49:16;2.63;;;2.13;;
9823;SDS011;4951;50.778;7.196;2022-11-15T16:51:44;2.80;;;2.23;;
9823;SDS011;4951;50.778;7.196;2022-11-15T16:54:12;2.03;;;1.83;;
9823;SDS011;4951;50.778;7.196;2022-11-15T16:56:39;2.20;;;2.00;;
9823;SDS011;4951;50.778;7.196;2022-11-15T16:59:08;1.90;;;1.70;;
9823;SDS011;4951;50.778;7.196;2022-11-15T17:01:41;8.07;;;1.80;;
9823;SDS011;4951;50.778;7.196;2022-11-15T17:04:16;3.00;;;2.10;;
9823;SDS011;4951;50.778;7.196;2022-11-15T17:06:44;2.77;;;2.27;;
9823;SDS011;4951;50.778;7.196;2022-11-15T17:09:13;2.20;;;2.00;;
9823;SDS011;4951;50.778;7.196;2022-11-15T17:11:42;2.87;;;2.27;;
9823;SDS011;4951;50.778;7.196;2022-11-15T17:14:10;2.30;;;1.80;;
9823;SDS011;4951;50.778;7.196;2022-11-15T17:16:37;2.30;;;2.10;;
9823;SDS011;4951;50.778;7.196;2022-11-15T17:19:10;2.00;;;1.90;;